sensor_id;sensor_type;location;lat;lon;timestamp;temperature;humidity
71563;DHT22;59391;52.504;13.438;2023-11-19T00:00:34;6.60;65.80
71563;DHT22;59391;52.504;13.438;2023-11-19T00:03:00;6.60;65.90
71563;DHT22;59391;52.504;13.438;2023-11-19T00:05:27;6.60;65.90
71563;DHT22;59391;52.504;13.438;2023-11-19T00:07:53;6.60;65.90
71563;DHT22;59391;52.504;13.438;2023-11-19T00:10:19;6.60;65.70
71563;DHT22;59391;52.504;13.438;2023-11-19T00:12:47;6.60;65.90
71563;DHT22;59391;52.504;13.438;2023-11-19T00:15:15;6.50;65.70
71563;DHT22;59391;52.504;13.438;2023-11-19T00:17:45;6.50;65.40
71563;DHT22;59391;52.504;13.438;2023-11-19T00:20:12;6.50;65.50
71563;DHT22;59391;52.504;13.438;2023-11-19T00:22:45;6.50;65.60
71563;DHT22;59391;52.504;13.438;2023-11-19T00:25:19;6.50;65.60
71563;DHT22;59391;52.504;13.438;2023-11-19T00:27:46;6.50;65.00
71563;DHT22;59391;52.504;13.438;2023-11-19T00:30:13;6.50;65.30
71563;DHT22;59391;52.504;13.438;2023-11-19T00:32:39;6.50;65.30
71563;DHT22;59391;52.504;13.438;2023-11-19T00:35:06;6.50;65.00
71563;DHT22;59391;52.504;13.438;2023-11-19T00:37:32;6.50;64.80
71563;DHT22;59391;52.504;13.438;2023-11-19T00:39:58;6.50;65.20
71563;DHT22;59391;52.504;13.438;2023-11-19T00:42:24;6.50;64.80
71563;DHT22;59391;52.504;13.438;2023-11-19T00:44:53;6.50;64.90
71563;DHT22;59391;52.504;13.438;2023-11-19T00:47:18;6.50;64.90
71563;DHT22;59391;52.504;13.438;2023-11-19T00:49:48;6.50;64.80
71563;DHT22;59391;52.504;13.438;2023-11-19T00:52:14;6.50;65.00
71563;DHT22;59391;52.504;13.438;2023-11-19T00:54:40;6.50;64.90
71563;DHT22;59391;52.504;13.438;2023-11-19T00:57:06;6.50;64.90
71563;DHT22;59391;52.504;13.438;2023-11-19T00:59:32;6.50;64.80
71563;DHT22;59391;52.504;13.438;2023-11-19T01:01:58;6.50;64.60
71563;DHT22;59391;52.504;13.438;2023-11-19T01:04:28;6.50;64.50
71563;DHT22;59391;52.504;13.438;2023-11-19T01:07:02;6.60;64.60
71563;DHT22;59391;52.504;13.438;2023-11-19T01:09:38;6.60;64.60
71563;DHT22;59391;52.504;13.438;2023-11-19T01:12:04;6.60;64.50
71563;DHT22;59391;52.504;13.438;2023-11-19T01:14:30;6.60;64.40
71563;DHT22;59391;52.504;13.438;2023-11-19T01:16:56;6.60;64.20
71563;DHT22;59391;52.504;13.438;2023-11-19T01:19:22;6.60;64.10
71563;DHT22;59391;52.504;13.438;2023-11-19T01:21:49;6.60;64.10
71563;DHT22;59391;52.504;13.438;2023-11-19T01:24:15;6.60;63.90
71563;DHT22;59391;52.504;13.438;2023-11-19T01:26:41;6.60;63.80
71563;DHT22;59391;52.504;13.438;2023-11-19T01:29:14;6.70;63.90
71563;DHT22;59391;52.504;13.438;2023-11-19T01:31:45;6.70;63.90
71563;DHT22;59391;52.504;13.438;2023-11-19T01:34:12;6.70;63.80
71563;DHT22;59391;52.504;13.438;2023-11-19T01:36:37;6.70;63.70
71563;DHT22;59391;52.504;13.438;2023-11-19T01:39:03;6.70;63.50
71563;DHT22;59391;52.504;13.438;2023-11-19T01:41:35;6.70;63.40
71563;DHT22;59391;52.504;13.438;2023-11-19T01:44:01;6.70;63.50
71563;DHT22;59391;52.504;13.438;2023-11-19T01:46:27;6.70;63.40
71563;DHT22;59391;52.504;13.438;2023-11-19T01:48:54;6.70;63.30
71563;DHT22;59391;52.504;13.438;2023-11-19T01:51:21;6.70;63.20
71563;DHT22;59391;52.504;13.438;2023-11-19T01:53:48;6.70;63.30
71563;DHT22;59391;52.504;13.438;2023-11-19T01:56:15;6.70;63.40
71563;DHT22;59391;52.504;13.438;2023-11-19T01:58:42;6.70;63.50
71563;DHT22;59391;52.504;13.438;2023-11-19T02:01:10;6.70;63.70
71563;DHT22;59391;52.504;13.438;2023-11-19T02:03:37;6.70;64.00
71563;DHT22;59391;52.504;13.438;2023-11-19T02:06:04;6.60;64.20
71563;DHT22;59391;52.504;13.438;2023-11-19T02:08:30;6.70;64.40
71563;DHT22;59391;52.504;13.438;2023-11-19T02:10:56;6.70;64.60
71563;DHT22;59391;52.504;13.438;2023-11-19T02:13:22;6.70;64.80
71563;DHT22;59391;52.504;13.438;2023-11-19T02:15:48;6.70;65.00
71563;DHT22;59391;52.504;13.438;2023-11-19T02:18:18;6.60;65.20
71563;DHT22;59391;52.504;13.438;2023-11-19T02:20:50;6.60;65.60
71563;DHT22;59391;52.504;13.438;2023-11-19T02:23:17;6.60;65.50
71563;DHT22;59391;52.504;13.438;2023-11-19T02:25:51;6.60;65.60
71563;DHT22;59391;52.504;13.438;2023-11-19T02:28:35;6.60;66.00
71563;DHT22;59391;52.504;13.438;2023-11-19T02:31:01;6.60;65.90
71563;DHT22;59391;52.504;13.438;2023-11-19T02:33:26;6.60;65.80
71563;DHT22;59391;52.504;13.438;2023-11-19T02:35:52;6.70;65.90
71563;DHT22;59391;52.504;13.438;2023-11-19T02:38:18;6.70;65.90
71563;DHT22;59391;52.504;13.438;2023-11-19T02:40:43;6.70;66.10
71563;DHT22;59391;52.504;13.438;2023-11-19T02:43:09;6.70;66.00
71563;DHT22;59391;52.504;13.438;2023-11-19T02:45:35;6.70;66.10
71563;DHT22;59391;52.504;13.438;2023-11-19T02:48:01;6.70;65.80
71563;DHT22;59391;52.504;13.438;2023-11-19T02:50:27;6.70;65.80
71563;DHT22;59391;52.504;13.438;2023-11-19T02:52:54;6.70;65.60
71563;DHT22;59391;52.504;13.438;2023-11-19T02:55:24;6.70;65.50
71563;DHT22;59391;52.504;13.438;2023-11-19T02:57:51;6.70;65.60
71563;DHT22;59391;52.504;13.438;2023-11-19T03:00:19;6.70;65.60
71563;DHT22;59391;52.504;13.438;2023-11-19T03:02:51;6.80;65.50
71563;DHT22;59391;52.504;13.438;2023-11-19T03:05:25;6.80;65.40
71563;DHT22;59391;52.504;13.438;2023-11-19T03:07:52;6.80;65.00
71563;DHT22;59391;52.504;13.438;2023-11-19T03:10:18;6.80;65.40
71563;DHT22;59391;52.504;13.438;2023-11-19T03:12:44;6.80;65.30
71563;DHT22;59391;52.504;13.438;2023-11-19T03:15:11;6.90;65.20
71563;DHT22;59391;52.504;13.438;2023-11-19T03:17:40;6.90;65.20
71563;DHT22;59391;52.504;13.438;2023-11-19T03:20:09;6.90;65.20
71563;DHT22;59391;52.504;13.438;2023-11-19T03:22:39;6.90;65.10
71563;DHT22;59391;52.504;13.438;2023-11-19T03:25:07;6.90;65.00
71563;DHT22;59391;52.504;13.438;2023-11-19T03:27:35;6.90;65.10
71563;DHT22;59391;52.504;13.438;2023-11-19T03:30:09;6.90;65.10
71563;DHT22;59391;52.504;13.438;2023-11-19T03:32:35;6.90;65.10
71563;DHT22;59391;52.504;13.438;2023-11-19T03:35:02;6.90;65.30
71563;DHT22;59391;52.504;13.438;2023-11-19T03:37:29;7.00;65.50
71563;DHT22;59391;52.504;13.438;2023-11-19T03:39:57;7.00;65.60
71563;DHT22;59391;52.504;13.438;2023-11-19T03:42:25;6.90;66.50
71563;DHT22;59391;52.504;13.438;2023-11-19T03:44:55;6.90;67.50
71563;DHT22;59391;52.504;13.438;2023-11-19T03:47:21;6.90;68.40
71563;DHT22;59391;52.504;13.438;2023-11-19T03:49:49;6.80;70.40
71563;DHT22;59391;52.504;13.438;2023-11-19T03:52:16;6.80;71.80
71563;DHT22;59391;52.504;13.438;2023-11-19T03:54:43;6.70;72.20
71563;DHT22;59391;52.504;13.438;2023-11-19T03:57:09;6.60;73.40
71563;DHT22;59391;52.504;13.438;2023-11-19T03:59:37;6.50;74.20
71563;DHT22;59391;52.504;13.438;2023-11-19T04:02:03;6.40;74.50
71563;DHT22;59391;52.504;13.438;2023-11-19T04:04:29;6.30;75.70
71563;DHT22;59391;52.504;13.438;2023-11-19T04:06:55;6.30;76.30
71563;DHT22;59391;52.504;13.438;2023-11-19T04:09:21;6.20;76.80
71563;DHT22;59391;52.504;13.438;2023-11-19T04:11:48;6.10;77.40
71563;DHT22;59391;52.504;13.438;2023-11-19T04:14:14;6.10;77.90
71563;DHT22;59391;52.504;13.438;2023-11-19T04:16:40;6.00;78.40
71563;DHT22;59391;52.504;13.438;2023-11-19T04:19:06;6.00;78.80
71563;DHT22;59391;52.504;13.438;2023-11-19T04:21:32;6.00;78.80
71563;DHT22;59391;52.504;13.438;2023-11-19T04:23:58;6.00;79.20
71563;DHT22;59391;52.504;13.438;2023-11-19T04:26:24;5.90;79.30
71563;DHT22;59391;52.504;13.438;2023-11-19T04:28:50;5.90;79.80
71563;DHT22;59391;52.504;13.438;2023-11-19T04:31:18;6.00;79.80
71563;DHT22;59391;52.504;13.438;2023-11-19T04:33:45;5.90;79.90
71563;DHT22;59391;52.504;13.438;2023-11-19T04:36:10;5.90;80.00
71563;DHT22;59391;52.504;13.438;2023-11-19T04:38:37;5.90;80.00
71563;DHT22;59391;52.504;13.438;2023-11-19T04:41:04;5.90;80.30
71563;DHT22;59391;52.504;13.438;2023-11-19T04:43:31;5.90;80.40
71563;DHT22;59391;52.504;13.438;2023-11-19T04:45:57;5.80;80.30
71563;DHT22;59391;52.504;13.438;2023-11-19T04:48:23;5.80;80.70
71563;DHT22;59391;52.504;13.438;2023-11-19T04:50:49;5.80;80.80
71563;DHT22;59391;52.504;13.438;2023-11-19T04:53:18;5.80;81.10
71563;DHT22;59391;52.504;13.438;2023-11-19T04:55:43;5.80;81.20
71563;DHT22;59391;52.504;13.438;2023-11-19T04:58:10;5.80;81.60
71563;DHT22;59391;52.504;13.438;2023-11-19T05:00:35;5.80;81.60
71563;DHT22;59391;52.504;13.438;2023-11-19T05:03:01;5.80;81.70
71563;DHT22;59391;52.504;13.438;2023-11-19T05:05:26;5.80;82.10
71563;DHT22;59391;52.504;13.438;2023-11-19T05:07:52;5.80;82.10
71563;DHT22;59391;52.504;13.438;2023-11-19T05:10:18;5.70;82.40
71563;DHT22;59391;52.504;13.438;2023-11-19T05:12:44;5.80;82.70
71563;DHT22;59391;52.504;13.438;2023-11-19T05:15:10;5.90;82.50
71563;DHT22;59391;52.504;13.438;2023-11-19T05:17:37;5.80;82.70
71563;DHT22;59391;52.504;13.438;2023-11-19T05:20:03;5.80;82.60
71563;DHT22;59391;52.504;13.438;2023-11-19T05:22:29;5.90;82.70
71563;DHT22;59391;52.504;13.438;2023-11-19T05:24:55;5.90;82.80
71563;DHT22;59391;52.504;13.438;2023-11-19T05:27:21;5.80;82.90
71563;DHT22;59391;52.504;13.438;2023-11-19T05:29:47;5.80;83.30
71563;DHT22;59391;52.504;13.438;2023-11-19T05:32:12;5.80;83.40
71563;DHT22;59391;52.504;13.438;2023-11-19T05:34:38;5.80;83.50
71563;DHT22;59391;52.504;13.438;2023-11-19T05:37:04;5.80;83.60
71563;DHT22;59391;52.504;13.438;2023-11-19T05:39:31;5.80;84.00
71563;DHT22;59391;52.504;13.438;2023-11-19T05:41:56;5.80;83.80
71563;DHT22;59391;52.504;13.438;2023-11-19T05:44:22;5.90;84.00
71563;DHT22;59391;52.504;13.438;2023-11-19T05:46:47;5.90;83.70
71563;DHT22;59391;52.504;13.438;2023-11-19T05:49:13;5.90;83.80
71563;DHT22;59391;52.504;13.438;2023-11-19T05:51:39;5.90;83.70
71563;DHT22;59391;52.504;13.438;2023-11-19T05:54:09;5.90;83.80
71563;DHT22;59391;52.504;13.438;2023-11-19T05:56:36;5.80;83.90
71563;DHT22;59391;52.504;13.438;2023-11-19T05:59:02;5.80;84.40
71563;DHT22;59391;52.504;13.438;2023-11-19T06:01:39;5.80;84.80
71563;DHT22;59391;52.504;13.438;2023-11-19T06:04:07;5.90;84.60
71563;DHT22;59391;52.504;13.438;2023-11-19T06:06:32;5.90;84.20
71563;DHT22;59391;52.504;13.438;2023-11-19T06:08:58;5.80;84.50
71563;DHT22;59391;52.504;13.438;2023-11-19T06:11:24;5.90;84.70
71563;DHT22;59391;52.504;13.438;2023-11-19T06:13:52;5.90;84.20
71563;DHT22;59391;52.504;13.438;2023-11-19T06:16:18;6.00;84.20
71563;DHT22;59391;52.504;13.438;2023-11-19T06:18:44;6.00;84.00
71563;DHT22;59391;52.504;13.438;2023-11-19T06:21:10;6.00;84.10
71563;DHT22;59391;52.504;13.438;2023-11-19T06:23:36;6.00;84.00
71563;DHT22;59391;52.504;13.438;2023-11-19T06:26:02;6.00;84.20
71563;DHT22;59391;52.504;13.438;2023-11-19T06:28:28;5.90;84.40
71563;DHT22;59391;52.504;13.438;2023-11-19T06:30:54;5.90;84.40
71563;DHT22;59391;52.504;13.438;2023-11-19T06:33:19;5.90;84.40
71563;DHT22;59391;52.504;13.438;2023-11-19T06:35:45;6.00;84.60
71563;DHT22;59391;52.504;13.438;2023-11-19T06:38:11;6.00;84.50
71563;DHT22;59391;52.504;13.438;2023-11-19T06:40:36;6.00;84.30
71563;DHT22;59391;52.504;13.438;2023-11-19T06:43:03;6.00;84.40
71563;DHT22;59391;52.504;13.438;2023-11-19T06:45:29;6.00;84.60
71563;DHT22;59391;52.504;13.438;2023-11-19T06:47:55;6.00;84.50
71563;DHT22;59391;52.504;13.438;2023-11-19T06:50:21;6.00;84.60
71563;DHT22;59391;52.504;13.438;2023-11-19T06:52:47;6.00;85.00
71563;DHT22;59391;52.504;13.438;2023-11-19T06:55:12;6.00;84.80
71563;DHT22;59391;52.504;13.438;2023-11-19T06:57:38;6.10;85.10
71563;DHT22;59391;52.504;13.438;2023-11-19T07:00:06;6.10;84.40
71563;DHT22;59391;52.504;13.438;2023-11-19T07:02:32;6.10;84.70
71563;DHT22;59391;52.504;13.438;2023-11-19T07:04:58;6.20;84.80
71563;DHT22;59391;52.504;13.438;2023-11-19T07:07:23;6.20;84.30
71563;DHT22;59391;52.504;13.438;2023-11-19T07:09:49;6.30;84.80
71563;DHT22;59391;52.504;13.438;2023-11-19T07:12:15;6.30;84.50
71563;DHT22;59391;52.504;13.438;2023-11-19T07:14:41;6.40;84.70
71563;DHT22;59391;52.504;13.438;2023-11-19T07:17:09;6.40;84.30
71563;DHT22;59391;52.504;13.438;2023-11-19T07:19:35;6.40;83.90
71563;DHT22;59391;52.504;13.438;2023-11-19T07:22:03;6.40;84.20
71563;DHT22;59391;52.504;13.438;2023-11-19T07:24:29;6.40;84.20
71563;DHT22;59391;52.504;13.438;2023-11-19T07:26:55;6.50;84.30
71563;DHT22;59391;52.504;13.438;2023-11-19T07:29:21;6.50;84.30
71563;DHT22;59391;52.504;13.438;2023-11-19T07:31:49;6.60;84.00
71563;DHT22;59391;52.504;13.438;2023-11-19T07:34:15;6.60;83.80
71563;DHT22;59391;52.504;13.438;2023-11-19T07:36:40;6.60;84.30
71563;DHT22;59391;52.504;13.438;2023-11-19T07:39:06;6.60;84.20
71563;DHT22;59391;52.504;13.438;2023-11-19T07:41:33;6.70;83.90
71563;DHT22;59391;52.504;13.438;2023-11-19T07:44:00;6.70;83.80
71563;DHT22;59391;52.504;13.438;2023-11-19T07:46:26;6.70;84.20
71563;DHT22;59391;52.504;13.438;2023-11-19T07:48:52;6.80;84.30
71563;DHT22;59391;52.504;13.438;2023-11-19T07:51:18;6.80;84.10
71563;DHT22;59391;52.504;13.438;2023-11-19T07:53:44;6.90;84.10
71563;DHT22;59391;52.504;13.438;2023-11-19T07:56:09;6.90;84.00
71563;DHT22;59391;52.504;13.438;2023-11-19T07:58:36;6.90;83.80
71563;DHT22;59391;52.504;13.438;2023-11-19T08:01:02;6.90;84.10
71563;DHT22;59391;52.504;13.438;2023-11-19T08:03:28;7.00;83.70
71563;DHT22;59391;52.504;13.438;2023-11-19T08:05:57;7.00;83.60
71563;DHT22;59391;52.504;13.438;2023-11-19T08:08:23;7.00;84.10
71563;DHT22;59391;52.504;13.438;2023-11-19T08:10:49;7.10;83.90
71563;DHT22;59391;52.504;13.438;2023-11-19T08:13:17;7.10;83.60
71563;DHT22;59391;52.504;13.438;2023-11-19T08:15:43;7.10;83.80
71563;DHT22;59391;52.504;13.438;2023-11-19T08:18:09;7.10;84.20
71563;DHT22;59391;52.504;13.438;2023-11-19T08:20:34;7.20;84.30
71563;DHT22;59391;52.504;13.438;2023-11-19T08:23:02;7.20;84.10
71563;DHT22;59391;52.504;13.438;2023-11-19T08:25:29;7.30;84.20
71563;DHT22;59391;52.504;13.438;2023-11-19T08:27:54;7.30;83.90
71563;DHT22;59391;52.504;13.438;2023-11-19T08:30:20;7.40;84.40
71563;DHT22;59391;52.504;13.438;2023-11-19T08:32:45;7.40;84.50
71563;DHT22;59391;52.504;13.438;2023-11-19T08:35:11;7.50;84.40
71563;DHT22;59391;52.504;13.438;2023-11-19T08:37:37;7.50;84.40
71563;DHT22;59391;52.504;13.438;2023-11-19T08:40:04;7.50;83.60
71563;DHT22;59391;52.504;13.438;2023-11-19T08:42:30;7.50;83.70
71563;DHT22;59391;52.504;13.438;2023-11-19T08:44:56;7.50;84.60
71563;DHT22;59391;52.504;13.438;2023-11-19T08:47:22;7.60;84.50
71563;DHT22;59391;52.504;13.438;2023-11-19T08:49:51;7.60;84.60
71563;DHT22;59391;52.504;13.438;2023-11-19T08:52:20;7.70;84.60
71563;DHT22;59391;52.504;13.438;2023-11-19T08:54:46;7.80;84.30
71563;DHT22;59391;52.504;13.438;2023-11-19T08:57:11;7.80;84.30
71563;DHT22;59391;52.504;13.438;2023-11-19T08:59:37;7.80;84.90
71563;DHT22;59391;52.504;13.438;2023-11-19T09:02:05;7.80;85.30
71563;DHT22;59391;52.504;13.438;2023-11-19T09:04:31;7.90;85.50
71563;DHT22;59391;52.504;13.438;2023-11-19T09:06:58;8.00;85.20
71563;DHT22;59391;52.504;13.438;2023-11-19T09:09:23;8.10;84.80
71563;DHT22;59391;52.504;13.438;2023-11-19T09:11:49;8.10;84.70
71563;DHT22;59391;52.504;13.438;2023-11-19T09:14:15;8.20;84.90
71563;DHT22;59391;52.504;13.438;2023-11-19T09:16:41;8.30;84.90
71563;DHT22;59391;52.504;13.438;2023-11-19T09:19:06;8.30;84.80
71563;DHT22;59391;52.504;13.438;2023-11-19T09:21:32;8.30;85.00
71563;DHT22;59391;52.504;13.438;2023-11-19T09:23:59;8.40;85.00
71563;DHT22;59391;52.504;13.438;2023-11-19T09:26:25;8.40;85.10
71563;DHT22;59391;52.504;13.438;2023-11-19T09:28:51;8.50;84.90
71563;DHT22;59391;52.504;13.438;2023-11-19T09:31:17;8.60;85.30
71563;DHT22;59391;52.504;13.438;2023-11-19T09:33:46;8.60;85.50
71563;DHT22;59391;52.504;13.438;2023-11-19T09:36:15;8.70;85.40
71563;DHT22;59391;52.504;13.438;2023-11-19T09:38:43;8.80;85.60
71563;DHT22;59391;52.504;13.438;2023-11-19T09:41:10;8.90;85.70
71563;DHT22;59391;52.504;13.438;2023-11-19T09:43:42;9.00;85.90
71563;DHT22;59391;52.504;13.438;2023-11-19T09:46:14;9.00;85.70
71563;DHT22;59391;52.504;13.438;2023-11-19T09:48:42;9.10;85.90
71563;DHT22;59391;52.504;13.438;2023-11-19T09:51:10;9.20;86.30
71563;DHT22;59391;52.504;13.438;2023-11-19T09:53:38;9.30;86.40
71563;DHT22;59391;52.504;13.438;2023-11-19T09:56:04;9.40;86.10
71563;DHT22;59391;52.504;13.438;2023-11-19T09:58:31;9.50;86.60
71563;DHT22;59391;52.504;13.438;2023-11-19T10:00:58;9.60;86.90
71563;DHT22;59391;52.504;13.438;2023-11-19T10:03:28;9.80;87.20
71563;DHT22;59391;52.504;13.438;2023-11-19T10:06:01;9.90;87.10
71563;DHT22;59391;52.504;13.438;2023-11-19T10:08:27;10.10;86.70
71563;DHT22;59391;52.504;13.438;2023-11-19T10:10:53;10.10;86.20
71563;DHT22;59391;52.504;13.438;2023-11-19T10:13:19;10.20;86.60
71563;DHT22;59391;52.504;13.438;2023-11-19T10:15:45;10.30;86.20
71563;DHT22;59391;52.504;13.438;2023-11-19T10:18:14;10.40;86.10
71563;DHT22;59391;52.504;13.438;2023-11-19T10:20:41;10.50;86.50
71563;DHT22;59391;52.504;13.438;2023-11-19T10:23:07;10.60;86.00
71563;DHT22;59391;52.504;13.438;2023-11-19T10:25:33;10.60;86.30
71563;DHT22;59391;52.504;13.438;2023-11-19T10:28:00;10.80;85.80
71563;DHT22;59391;52.504;13.438;2023-11-19T10:30:32;10.90;85.30
71563;DHT22;59391;52.504;13.438;2023-11-19T10:33:10;11.00;84.50
71563;DHT22;59391;52.504;13.438;2023-11-19T10:35:53;11.10;85.20
71563;DHT22;59391;52.504;13.438;2023-11-19T10:38:22;11.10;84.70
71563;DHT22;59391;52.504;13.438;2023-11-19T10:40:49;11.20;84.80
71563;DHT22;59391;52.504;13.438;2023-11-19T10:43:19;11.20;85.10
71563;DHT22;59391;52.504;13.438;2023-11-19T10:45:47;11.30;85.00
71563;DHT22;59391;52.504;13.438;2023-11-19T10:48:13;11.40;84.30
71563;DHT22;59391;52.504;13.438;2023-11-19T10:50:41;11.50;85.10
71563;DHT22;59391;52.504;13.438;2023-11-19T10:53:09;11.60;84.20
71563;DHT22;59391;52.504;13.438;2023-11-19T10:55:38;11.70;84.30
71563;DHT22;59391;52.504;13.438;2023-11-19T10:58:06;11.80;83.70
71563;DHT22;59391;52.504;13.438;2023-11-19T11:03:20;11.90;84.40
71563;DHT22;59391;52.504;13.438;2023-11-19T11:05:52;12.00;83.70
71563;DHT22;59391;52.504;13.438;2023-11-19T11:08:19;12.10;84.60
71563;DHT22;59391;52.504;13.438;2023-11-19T11:10:55;12.20;83.90
71563;DHT22;59391;52.504;13.438;2023-11-19T11:13:23;12.20;83.60
71563;DHT22;59391;52.504;13.438;2023-11-19T11:15:50;12.30;82.60
71563;DHT22;59391;52.504;13.438;2023-11-19T11:18:17;12.30;83.60
71563;DHT22;59391;52.504;13.438;2023-11-19T11:20:46;12.40;83.20
71563;DHT22;59391;52.504;13.438;2023-11-19T11:23:36;12.40;82.40
71563;DHT22;59391;52.504;13.438;2023-11-19T11:29:35;12.70;84.20
71563;DHT22;59391;52.504;13.438;2023-11-19T11:35:46;13.10;83.70
71563;DHT22;59391;52.504;13.438;2023-11-19T11:38:22;13.30;82.00
71563;DHT22;59391;52.504;13.438;2023-11-19T11:41:23;13.40;79.90
71563;DHT22;59391;52.504;13.438;2023-11-19T11:43:55;13.50;82.50
71563;DHT22;59391;52.504;13.438;2023-11-19T11:49:07;14.10;79.90
71563;DHT22;59391;52.504;13.438;2023-11-19T11:54:09;14.70;81.70
71563;DHT22;59391;52.504;13.438;2023-11-19T11:57:22;14.90;80.20
71563;DHT22;59391;52.504;13.438;2023-11-19T11:59:48;15.20;79.00
71563;DHT22;59391;52.504;13.438;2023-11-19T12:02:17;15.30;76.90
71563;DHT22;59391;52.504;13.438;2023-11-19T12:04:51;15.40;74.20
71563;DHT22;59391;52.504;13.438;2023-11-19T12:07:22;15.30;74.20
71563;DHT22;59391;52.504;13.438;2023-11-19T12:10:08;15.20;74.10
71563;DHT22;59391;52.504;13.438;2023-11-19T12:12:36;15.10;74.70
71563;DHT22;59391;52.504;13.438;2023-11-19T12:15:09;15.00;74.40
71563;DHT22;59391;52.504;13.438;2023-11-19T12:20:10;14.80;75.20
71563;DHT22;59391;52.504;13.438;2023-11-19T12:22:41;14.70;74.70
71563;DHT22;59391;52.504;13.438;2023-11-19T12:25:08;14.50;74.00
71563;DHT22;59391;52.504;13.438;2023-11-19T12:27:36;14.40;73.30
71563;DHT22;59391;52.504;13.438;2023-11-19T12:30:06;14.30;74.80
71563;DHT22;59391;52.504;13.438;2023-11-19T12:32:39;14.20;75.00
71563;DHT22;59391;52.504;13.438;2023-11-19T12:35:09;14.20;76.30
71563;DHT22;59391;52.504;13.438;2023-11-19T12:37:48;14.20;76.50
71563;DHT22;59391;52.504;13.438;2023-11-19T12:40:22;14.20;77.80
71563;DHT22;59391;52.504;13.438;2023-11-19T12:42:54;14.10;77.00
71563;DHT22;59391;52.504;13.438;2023-11-19T12:45:20;14.10;76.60
71563;DHT22;59391;52.504;13.438;2023-11-19T12:47:49;13.90;76.00
71563;DHT22;59391;52.504;13.438;2023-11-19T12:50:16;14.00;77.50
71563;DHT22;59391;52.504;13.438;2023-11-19T12:52:58;13.90;77.20
71563;DHT22;59391;52.504;13.438;2023-11-19T12:55:28;13.90;75.80
71563;DHT22;59391;52.504;13.438;2023-11-19T12:57:55;13.80;76.50
71563;DHT22;59391;52.504;13.438;2023-11-19T13:00:25;13.70;78.20
71563;DHT22;59391;52.504;13.438;2023-11-19T13:02:53;13.80;78.50
71563;DHT22;59391;52.504;13.438;2023-11-19T13:05:33;13.80;79.30
71563;DHT22;59391;52.504;13.438;2023-11-19T13:08:07;13.80;76.30
71563;DHT22;59391;52.504;13.438;2023-11-19T13:10:52;13.80;77.50
71563;DHT22;59391;52.504;13.438;2023-11-19T13:13:19;13.90;79.80
71563;DHT22;59391;52.504;13.438;2023-11-19T13:15:45;13.90;79.40
71563;DHT22;59391;52.504;13.438;2023-11-19T13:18:11;13.90;77.20
71563;DHT22;59391;52.504;13.438;2023-11-19T13:20:38;14.00;80.00
71563;DHT22;59391;52.504;13.438;2023-11-19T13:23:06;14.10;77.80
71563;DHT22;59391;52.504;13.438;2023-11-19T13:25:35;14.20;80.30
71563;DHT22;59391;52.504;13.438;2023-11-19T13:28:01;14.40;80.30
71563;DHT22;59391;52.504;13.438;2023-11-19T13:30:27;14.60;80.20
71563;DHT22;59391;52.504;13.438;2023-11-19T13:32:54;14.70;75.70
71563;DHT22;59391;52.504;13.438;2023-11-19T13:35:21;14.70;76.20
71563;DHT22;59391;52.504;13.438;2023-11-19T13:37:50;14.80;76.10
71563;DHT22;59391;52.504;13.438;2023-11-19T13:40:17;14.80;75.10
71563;DHT22;59391;52.504;13.438;2023-11-19T13:42:44;14.70;75.70
71563;DHT22;59391;52.504;13.438;2023-11-19T13:45:14;14.70;75.10
71563;DHT22;59391;52.504;13.438;2023-11-19T13:47:45;14.60;73.60
71563;DHT22;59391;52.504;13.438;2023-11-19T13:50:14;14.60;74.80
71563;DHT22;59391;52.504;13.438;2023-11-19T13:52:42;14.50;75.40
71563;DHT22;59391;52.504;13.438;2023-11-19T13:55:12;14.40;71.90
71563;DHT22;59391;52.504;13.438;2023-11-19T13:57:40;14.40;75.50
71563;DHT22;59391;52.504;13.438;2023-11-19T14:00:08;14.30;74.20
71563;DHT22;59391;52.504;13.438;2023-11-19T14:02:47;14.30;73.80
71563;DHT22;59391;52.504;13.438;2023-11-19T14:05:13;14.20;74.60
71563;DHT22;59391;52.504;13.438;2023-11-19T14:07:44;14.20;75.30
71563;DHT22;59391;52.504;13.438;2023-11-19T14:10:11;14.10;75.60
71563;DHT22;59391;52.504;13.438;2023-11-19T14:12:37;14.10;76.00
71563;DHT22;59391;52.504;13.438;2023-11-19T14:15:07;14.10;75.50
71563;DHT22;59391;52.504;13.438;2023-11-19T14:17:35;14.10;78.00
71563;DHT22;59391;52.504;13.438;2023-11-19T14:20:01;14.00;75.70
71563;DHT22;59391;52.504;13.438;2023-11-19T14:22:31;14.00;75.50
71563;DHT22;59391;52.504;13.438;2023-11-19T14:24:57;13.90;75.80
71563;DHT22;59391;52.504;13.438;2023-11-19T14:27:22;13.90;73.00
71563;DHT22;59391;52.504;13.438;2023-11-19T14:29:51;13.90;74.60
71563;DHT22;59391;52.504;13.438;2023-11-19T14:32:17;13.80;75.60
71563;DHT22;59391;52.504;13.438;2023-11-19T14:34:42;13.80;76.10
71563;DHT22;59391;52.504;13.438;2023-11-19T14:37:09;13.80;76.40
71563;DHT22;59391;52.504;13.438;2023-11-19T14:39:34;13.80;75.00
71563;DHT22;59391;52.504;13.438;2023-11-19T14:42:00;13.80;75.80
71563;DHT22;59391;52.504;13.438;2023-11-19T14:44:29;13.80;76.70
71563;DHT22;59391;52.504;13.438;2023-11-19T14:46:55;13.80;76.10
71563;DHT22;59391;52.504;13.438;2023-11-19T14:49:21;13.80;74.50
71563;DHT22;59391;52.504;13.438;2023-11-19T14:51:47;13.70;76.20
71563;DHT22;59391;52.504;13.438;2023-11-19T14:54:12;13.80;75.80
71563;DHT22;59391;52.504;13.438;2023-11-19T14:56:39;13.80;76.30
71563;DHT22;59391;52.504;13.438;2023-11-19T14:59:08;13.70;75.90
71563;DHT22;59391;52.504;13.438;2023-11-19T15:01:34;13.70;74.10
71563;DHT22;59391;52.504;13.438;2023-11-19T15:03:59;13.70;76.80
71563;DHT22;59391;52.504;13.438;2023-11-19T15:06:25;13.70;77.40
71563;DHT22;59391;52.504;13.438;2023-11-19T15:08:52;13.80;77.40
71563;DHT22;59391;52.504;13.438;2023-11-19T15:11:18;13.70;74.40
71563;DHT22;59391;52.504;13.438;2023-11-19T15:13:44;13.70;76.70
71563;DHT22;59391;52.504;13.438;2023-11-19T15:16:10;13.70;73.90
71563;DHT22;59391;52.504;13.438;2023-11-19T15:18:37;13.70;75.70
71563;DHT22;59391;52.504;13.438;2023-11-19T15:21:03;13.70;76.20
71563;DHT22;59391;52.504;13.438;2023-11-19T15:23:29;13.70;77.20
71563;DHT22;59391;52.504;13.438;2023-11-19T15:25:55;13.70;76.50
71563;DHT22;59391;52.504;13.438;2023-11-19T15:28:21;13.60;74.80
71563;DHT22;59391;52.504;13.438;2023-11-19T15:30:47;13.60;75.80
71563;DHT22;59391;52.504;13.438;2023-11-19T15:33:13;13.60;76.40
71563;DHT22;59391;52.504;13.438;2023-11-19T15:35:39;13.60;75.30
71563;DHT22;59391;52.504;13.438;2023-11-19T15:38:06;13.60;75.40
71563;DHT22;59391;52.504;13.438;2023-11-19T15:40:35;13.60;76.10
71563;DHT22;59391;52.504;13.438;2023-11-19T15:43:03;13.60;75.70
71563;DHT22;59391;52.504;13.438;2023-11-19T15:45:29;13.50;74.40